sensor_id;sensor_type;location;lat;lon;timestamp;pressure;altitude;pressure_sealevel;temperature;humidity
53699;BME280;68408;53.952;27.612;2023-07-20T00:00:16;1004.1;;;18.5;54.4
53699;BME280;68408;53.952;27.612;2023-07-20T00:10:42;1004.1;;;18.6;54.6
53699;BME280;68408;53.952;27.612;2023-07-20T00:15:50;1004.1;;;18.6;54.9
53699;BME280;68408;53.952;27.612;2023-07-20T00:20:50;1004.2;;;18.5;54.9
53699;BME280;68408;53.952;27.612;2023-07-20T00:25:28;1004.2;;;18.4;55.2
53699;BME280;68408;53.952;27.612;2023-07-20T00:30:22;1004.2;;;18.4;55
53699;BME280;68408;53.952;27.612;2023-07-20T00:35:30;1004.2;;;18.4;55.4
53699;BME280;68408;53.952;27.612;2023-07-20T00:40:16;1004.2;;;18.3;55.9
53699;BME280;68408;53.952;27.612;2023-07-20T00:45:10;1004.1;;;18.4;56
53699;BME280;68408;53.952;27.612;2023-07-20T00:50:42;1004.2;;;18.4;55.7
53699;BME280;68408;53.952;27.612;2023-07-20T00:55:50;1004.2;;;18.3;55.8
53699;BME280;68408;53.952;27.612;2023-07-20T01:00:10;1004.2;;;18.3;55.9
53699;BME280;68408;53.952;27.612;2023-07-20T01:05:31;1004.2;;;18.2;56.1
53699;BME280;68408;53.952;27.612;2023-07-20T01:10:51;1004.2;;;18.2;56
53699;BME280;68408;53.952;27.612;2023-07-20T01:15:36;1004.2;;;18.2;56.1
53699;BME280;68408;53.952;27.612;2023-07-20T01:20:11;1004.2;;;18.2;56.2
53699;BME280;68408;53.952;27.612;2023-07-20T01:25:44;1004.1;;;18.3;56.2
53699;BME280;68408;53.952;27.612;2023-07-20T01:30:51;1004.1;;;18.3;56.5
53699;BME280;68408;53.952;27.612;2023-07-20T01:35:04;1004.2;;;18.2;56.9
53699;BME280;68408;53.952;27.612;2023-07-20T01:40:28;1004.2;;;18.2;57
53699;BME280;68408;53.952;27.612;2023-07-20T01:45:50;1004.2;;;18.2;57.2
53699;BME280;68408;53.952;27.612;2023-07-20T01:50:42;1004.2;;;18.1;57.3
53699;BME280;68408;53.952;27.612;2023-07-20T01:55:16;1004.1;;;18;57.6
53699;BME280;68408;53.952;27.612;2023-07-20T02:00:22;1004.1;;;17.9;57.7
53699;BME280;68408;53.952;27.612;2023-07-20T02:05:50;1004.1;;;17.8;58
53699;BME280;68408;53.952;27.612;2023-07-20T02:10:10;1004.1;;;17.8;58.1
53699;BME280;68408;53.952;27.612;2023-07-20T02:15:04;1004.2;;;17.8;58.3
53699;BME280;68408;53.952;27.612;2023-07-20T02:20:12;1004.2;;;17.7;58.6
53699;BME280;68408;53.952;27.612;2023-07-20T02:25:42;1004.2;;;17.6;58.6
53699;BME280;68408;53.952;27.612;2023-07-20T02:30:50;1004.2;;;17.7;58.7
53699;BME280;68408;53.952;27.612;2023-07-20T02:35:04;1004.2;;;17.7;58.5
53699;BME280;68408;53.952;27.612;2023-07-20T02:40:05;1004.3;;;17.7;58.5
53699;BME280;68408;53.952;27.612;2023-07-20T02:50:50;1004.1;;;17.7;58.4
53699;BME280;68408;53.952;27.612;2023-07-20T02:55:36;1004.1;;;17.8;58.4
53699;BME280;68408;53.952;27.612;2023-07-20T03:00:42;1004.2;;;17.8;58.3
53699;BME280;68408;53.952;27.612;2023-07-20T03:05:48;1004.2;;;17.8;58.5
53699;BME280;68408;53.952;27.612;2023-07-20T03:10:30;1004.2;;;17.8;58.4
53699;BME280;68408;53.952;27.612;2023-07-20T03:15:10;1004.2;;;17.9;58.1
53699;BME280;68408;53.952;27.612;2023-07-20T03:20:36;1004.1;;;17.9;58
53699;BME280;68408;53.952;27.612;2023-07-20T03:25:50;1004.1;;;18;58
53699;BME280;68408;53.952;27.612;2023-07-20T03:30:30;1004.1;;;18.1;57.7
53699;BME280;68408;53.952;27.612;2023-07-20T03:35:04;1004.2;;;18.2;57.5
53699;BME280;68408;53.952;27.612;2023-07-20T03:40:50;1004.2;;;18.3;57.1
53699;BME280;68408;53.952;27.612;2023-07-20T03:45:14;1004.3;;;18.4;57
53699;BME280;68408;53.952;27.612;2023-07-20T03:50:10;1004.3;;;18.3;57.1
53699;BME280;68408;53.952;27.612;2023-07-20T03:55:30;1004.3;;;18.4;57
53699;BME280;68408;53.952;27.612;2023-07-20T04:00:30;1004.3;;;18.3;57
53699;BME280;68408;53.952;27.612;2023-07-20T04:05:50;1004.2;;;18.3;57
53699;BME280;68408;53.952;27.612;2023-07-20T04:10:36;1004.2;;;18.6;56.3
53699;BME280;68408;53.952;27.612;2023-07-20T04:15:28;1004.3;;;18.8;55.9
53699;BME280;68408;53.952;27.612;2023-07-20T04:20:04;1004.3;;;18.8;55.9
53699;BME280;68408;53.952;27.612;2023-07-20T04:25:10;1004.2;;;19.4;54.3
53699;BME280;68408;53.952;27.612;2023-07-20T04:30:10;1004.3;;;19.4;54
53699;BME280;68408;53.952;27.612;2023-07-20T04:35:45;1004.3;;;19.3;54.6
53699;BME280;68408;53.952;27.612;2023-07-20T04:40:30;1004.3;;;19.2;55.7
53699;BME280;68408;53.952;27.612;2023-07-20T04:45:50;1004.3;;;19.1;56.8
53699;BME280;68408;53.952;27.612;2023-07-20T04:50:28;1004.3;;;19.3;56.4
53699;BME280;68408;53.952;27.612;2023-07-20T04:55:18;1004.2;;;19.4;56.7
53699;BME280;68408;53.952;27.612;2023-07-20T05:00:30;1004.3;;;19.7;55.9
53699;BME280;68408;53.952;27.612;2023-07-20T05:10:20;1004.2;;;19.7;55.4
53699;BME280;68408;53.952;27.612;2023-07-20T05:20:50;1004.4;;;19.7;55.8
53699;BME280;68408;53.952;27.612;2023-07-20T05:25:16;1004.4;;;19.7;56
53699;BME280;68408;53.952;27.612;2023-07-20T05:30:50;1004.3;;;19.7;56
53699;BME280;68408;53.952;27.612;2023-07-20T05:35:50;1004.3;;;19.8;55.5
53699;BME280;68408;53.952;27.612;2023-07-20T05:40:50;1004.3;;;20;55.2
53699;BME280;68408;53.952;27.612;2023-07-20T05:45:22;1004.3;;;20.1;55
53699;BME280;68408;53.952;27.612;2023-07-20T05:50:36;1004.3;;;20;55
53699;BME280;68408;53.952;27.612;2023-07-20T05:55:30;1004.3;;;20.2;54.9
53699;BME280;68408;53.952;27.612;2023-07-20T06:00:10;1004.3;;;20.1;55
53699;BME280;68408;53.952;27.612;2023-07-20T06:05:22;1004.3;;;20.2;54.9
53699;BME280;68408;53.952;27.612;2023-07-20T06:10:34;1004.2;;;20.3;54.3
53699;BME280;68408;53.952;27.612;2023-07-20T06:15:42;1004.1;;;20.4;53.7
53699;BME280;68408;53.952;27.612;2023-07-20T06:20:22;1004.1;;;20.6;53.5
53699;BME280;68408;53.952;27.612;2023-07-20T06:25:10;1003.9;;;21.1;52.5
53699;BME280;68408;53.952;27.612;2023-07-20T06:30:06;1003.9;;;21.4;52
53699;BME280;68408;53.952;27.612;2023-07-20T06:35:22;1003.7;;;22;49.9
53699;BME280;68408;53.952;27.612;2023-07-20T06:40:10;1003.6;;;22.2;49.4
53699;BME280;68408;53.952;27.612;2023-07-20T06:45:30;1003.5;;;21.9;48.7
53699;BME280;68408;53.952;27.612;2023-07-20T06:50:42;1003.5;;;21.8;48.9
53699;BME280;68408;53.952;27.612;2023-07-20T06:55:50;1003.5;;;21.7;49
53699;BME280;68408;53.952;27.612;2023-07-20T07:00:28;1003.5;;;21.8;48.3
53699;BME280;68408;53.952;27.612;2023-07-20T07:05:04;1003.5;;;21.9;47.8
53699;BME280;68408;53.952;27.612;2023-07-20T07:10:10;1003.5;;;22;47.3
53699;BME280;68408;53.952;27.612;2023-07-20T07:15:50;1003.5;;;22;46.5
53699;BME280;68408;53.952;27.612;2023-07-20T07:20:50;1003.5;;;21.9;46.8
53699;BME280;68408;53.952;27.612;2023-07-20T07:25:50;1003.5;;;21.9;46.4
53699;BME280;68408;53.952;27.612;2023-07-20T07:30:50;1003.5;;;22;46.4
53699;BME280;68408;53.952;27.612;2023-07-20T07:35:36;1003.6;;;22;46.2
53699;BME280;68408;53.952;27.612;2023-07-20T07:40:04;1003.7;;;22.2;45.1
53699;BME280;68408;53.952;27.612;2023-07-20T07:45:36;1003.5;;;22.6;43.8
53699;BME280;68408;53.952;27.612;2023-07-20T07:50:50;1003.4;;;23.3;42.7
53699;BME280;68408;53.952;27.612;2023-07-20T07:55:30;1003.3;;;23.5;42.8
53699;BME280;68408;53.952;27.612;2023-07-20T08:00:42;1003.3;;;23.9;42.1
53699;BME280;68408;53.952;27.612;2023-07-20T08:05:48;1003.2;;;23.8;42.2
53699;BME280;68408;53.952;27.612;2023-07-20T08:10:05;1003.3;;;23.9;41.6
53699;BME280;68408;53.952;27.612;2023-07-20T08:15:04;1003.3;;;23.9;41.5
53699;BME280;68408;53.952;27.612;2023-07-20T08:20:04;1003.3;;;23.8;41.5
53699;BME280;68408;53.952;27.612;2023-07-20T08:30:38;1003.3;;;23.9;41.2
53699;BME280;68408;53.952;27.612;2023-07-20T08:35:06;1003.3;;;23.8;41.6
53699;BME280;68408;53.952;27.612;2023-07-20T08:40:28;1003.3;;;24.2;41.3
53699;BME280;68408;53.952;27.612;2023-07-20T08:45:10;1003.2;;;24.6;40.3
53699;BME280;68408;53.952;27.612;2023-07-20T08:50:04;1003.1;;;24.7;39.9
53699;BME280;68408;53.952;27.612;2023-07-20T08:55:04;1003.2;;;24.5;39.8
53699;BME280;68408;53.952;27.612;2023-07-20T09:00:22;1003.2;;;24.4;39.5
53699;BME280;68408;53.952;27.612;2023-07-20T09:05:24;1003.2;;;24.7;39.3
53699;BME280;68408;53.952;27.612;2023-07-20T09:10:48;1003.2;;;24.7;39
53699;BME280;68408;53.952;27.612;2023-07-20T09:15:04;1003.1;;;24.7;39
53699;BME280;68408;53.952;27.612;2023-07-20T09:20:05;1003.2;;;24.5;38.4
53699;BME280;68408;53.952;27.612;2023-07-20T09:25:30;1003.2;;;24.3;38.6
53699;BME280;68408;53.952;27.612;2023-07-20T09:30:10;1003.2;;;24.1;38.8
53699;BME280;68408;53.952;27.612;2023-07-20T09:35:04;1003.2;;;24;39.3
53699;BME280;68408;53.952;27.612;2023-07-20T09:40:50;1003.2;;;24;39.3
53699;BME280;68408;53.952;27.612;2023-07-20T09:45:48;1003.1;;;24.4;38.9
53699;BME280;68408;53.952;27.612;2023-07-20T10:00:50;1003.1;;;25.1;38
53699;BME280;68408;53.952;27.612;2023-07-20T10:05:16;1003.1;;;25.5;36.8
53699;BME280;68408;53.952;27.612;2023-07-20T10:10:10;1003.1;;;25.8;36.6
53699;BME280;68408;53.952;27.612;2023-07-20T10:15:08;1003.1;;;25.8;36.5
53699;BME280;68408;53.952;27.612;2023-07-20T10:20:42;1003.1;;;25.8;36.5
53699;BME280;68408;53.952;27.612;2023-07-20T10:25:10;1003.2;;;25.7;35.7
53699;BME280;68408;53.952;27.612;2023-07-20T10:30:10;1003.2;;;25.5;35.8
53699;BME280;68408;53.952;27.612;2023-07-20T10:35:50;1003.2;;;25.5;35.9
53699;BME280;68408;53.952;27.612;2023-07-20T10:40:42;1003.2;;;25.8;35.8
53699;BME280;68408;53.952;27.612;2023-07-20T10:45:29;1003.2;;;25.6;36
53699;BME280;68408;53.952;27.612;2023-07-20T10:50:04;1003.1;;;25.6;36
53699;BME280;68408;53.952;27.612;2023-07-20T10:55:14;1003.1;;;25.6;36
53699;BME280;68408;53.952;27.612;2023-07-20T11:00:18;1003.2;;;25.5;35.7
53699;BME280;68408;53.952;27.612;2023-07-20T11:05:50;1003.1;;;25.7;35.8
53699;BME280;68408;53.952;27.612;2023-07-20T11:10:36;1003;;;25.7;35.6
53699;BME280;68408;53.952;27.612;2023-07-20T11:15:45;1003;;;25.9;35.3
53699;BME280;68408;53.952;27.612;2023-07-20T11:20:50;1003;;;26.1;34.9
53699;BME280;68408;53.952;27.612;2023-07-20T11:25:37;1003;;;25.9;34.8
53699;BME280;68408;53.952;27.612;2023-07-20T11:30:32;1003;;;25.8;34.9
53699;BME280;68408;53.952;27.612;2023-07-20T11:35:04;1002.9;;;25.9;34.8
53699;BME280;68408;53.952;27.612;2023-07-20T11:40:50;1002.9;;;25.8;34.9
53699;BME280;68408;53.952;27.612;2023-07-20T11:45:50;1002.9;;;25.5;34.6
53699;BME280;68408;53.952;27.612;2023-07-20T11:55:50;1002.8;;;25.6;34.7
53699;BME280;68408;53.952;27.612;2023-07-20T12:00:37;1002.8;;;25.7;34.5
53699;BME280;68408;53.952;27.612;2023-07-20T12:05:11;1002.8;;;25.8;34.5
53699;BME280;68408;53.952;27.612;2023-07-20T12:10:30;1002.8;;;25.7;33.9
53699;BME280;68408;53.952;27.612;2023-07-20T12:15:52;1002.9;;;25.6;34
53699;BME280;68408;53.952;27.612;2023-07-20T12:20:28;1002.9;;;25.2;34.5
53699;BME280;68408;53.952;27.612;2023-07-20T12:25:16;1003;;;24.8;35.5
53699;BME280;68408;53.952;27.612;2023-07-20T12:30:50;1003;;;24.7;35.9
53699;BME280;68408;53.952;27.612;2023-07-20T12:35:20;1003;;;24.7;36.2
53699;BME280;68408;53.952;27.612;2023-07-20T12:40:04;1003;;;24.7;36.3
53699;BME280;68408;53.952;27.612;2023-07-20T12:45:05;1002.9;;;24.5;36.4
53699;BME280;68408;53.952;27.612;2023-07-20T12:50:30;1002.9;;;24.8;35.7
53699;BME280;68408;53.952;27.612;2023-07-20T12:55:30;1002.9;;;24.9;35.4
53699;BME280;68408;53.952;27.612;2023-07-20T13:00:36;1002.9;;;25;35.2
53699;BME280;68408;53.952;27.612;2023-07-20T13:05:28;1002.9;;;25.1;35
53699;BME280;68408;53.952;27.612;2023-07-20T13:10:42;1002.8;;;25.3;34.7
53699;BME280;68408;53.952;27.612;2023-07-20T13:15:10;1002.8;;;25.4;34.3
53699;BME280;68408;53.952;27.612;2023-07-20T13:20:10;1002.8;;;25.4;34.2
53699;BME280;68408;53.952;27.612;2023-07-20T13:25:10;1002.8;;;25.1;34.5
53699;BME280;68408;53.952;27.612;2023-07-20T13:30:30;1002.7;;;25.1;34.3
53699;BME280;68408;53.952;27.612;2023-07-20T13:35:50;1002.6;;;25.1;34.1
53699;BME280;68408;53.952;27.612;2023-07-20T13:45:04;1002.6;;;25.3;34
53699;BME280;68408;53.952;27.612;2023-07-20T13:50:30;1002.6;;;25.1;33.8
53699;BME280;68408;53.952;27.612;2023-07-20T13:55:04;1002.6;;;25.1;33.6
53699;BME280;68408;53.952;27.612;2023-07-20T14:00:22;1002.6;;;25.3;33.3
53699;BME280;68408;53.952;27.612;2023-07-20T14:05:42;1002.5;;;25.1;33.5
53699;BME280;68408;53.952;27.612;2023-07-20T14:10:50;1002.5;;;24.9;34.3
53699;BME280;68408;53.952;27.612;2023-07-20T14:15:10;1002.5;;;24.8;34.6
53699;BME280;68408;53.952;27.612;2023-07-20T14:20:05;1002.4;;;24.9;34.6
53699;BME280;68408;53.952;27.612;2023-07-20T14:25:50;1002.5;;;24.8;34.6
53699;BME280;68408;53.952;27.612;2023-07-20T14:30:05;1002.4;;;24.8;34
53699;BME280;68408;53.952;27.612;2023-07-20T14:35:10;1002.4;;;24.8;33.8
53699;BME280;68408;53.952;27.612;2023-07-20T14:40:28;1002.2;;;25.1;33.6
53699;BME280;68408;53.952;27.612;2023-07-20T14:45:42;1002.2;;;25.4;33.5
53699;BME280;68408;53.952;27.612;2023-07-20T14:50:30;1002.1;;;25.4;33.5
53699;BME280;68408;53.952;27.612;2023-07-20T14:55:04;1002.2;;;25.3;33.4
53699;BME280;68408;53.952;27.612;2023-07-20T15:00:50;1002.2;;;25.3;33
53699;BME280;68408;53.952;27.612;2023-07-20T15:05:42;1002.2;;;24.7;34.3
53699;BME280;68408;53.952;27.612;2023-07-20T15:10:50;1002.2;;;24.4;34.8
53699;BME280;68408;53.952;27.612;2023-07-20T15:15:22;1002.1;;;24.1;35.2
53699;BME280;68408;53.952;27.612;2023-07-20T15:20:42;1002.2;;;24;35.4
53699;BME280;68408;53.952;27.612;2023-07-20T15:25:10;1002.2;;;23.9;35.7
53699;BME280;68408;53.952;27.612;2023-07-20T15:30:50;1002.2;;;24;35.5
53699;BME280;68408;53.952;27.612;2023-07-20T15:35:36;1002.2;;;24;35.2
53699;BME280;68408;53.952;27.612;2023-07-20T15:40:42;1002.3;;;23.9;35.5
53699;BME280;68408;53.952;27.612;2023-07-20T15:45:50;1002.3;;;23.7;35.5
53699;BME280;68408;53.952;27.612;2023-07-20T15:50:30;1002.3;;;23.5;35.6
53699;BME280;68408;53.952;27.612;2023-07-20T15:55:10;1002.4;;;23.3;36.1
53699;BME280;68408;53.952;27.612;2023-07-20T16:00:20;1002.4;;;23.2;36.4
53699;BME280;68408;53.952;27.612;2023-07-20T16:05:50;1002.5;;;23.1;36.8
53699;BME280;68408;53.952;27.612;2023-07-20T16:10:51;1002.5;;;23;37.1
53699;BME280;68408;53.952;27.612;2023-07-20T16:15:50;1002.5;;;22.9;37.6
53699;BME280;68408;53.952;27.612;2023-07-20T16:20:50;1002.5;;;22.7;38.2
53699;BME280;68408;53.952;27.612;2023-07-20T16:25:36;1002.5;;;22.7;38.5
53699;BME280;68408;53.952;27.612;2023-07-20T16:30:10;1002.5;;;22.7;38.6
53699;BME280;68408;53.952;27.612;2023-07-20T16:35:36;1002.6;;;22.7;38.8
53699;BME280;68408;53.952;27.612;2023-07-20T16:40:50;1002.6;;;22.7;38.9
53699;BME280;68408;53.952;27.612;2023-07-20T16:45:28;1002.6;;;22.7;38.7
53699;BME280;68408;53.952;27.612;2023-07-20T16:50:22;1002.6;;;22.6;38.9
53699;BME280;68408;53.952;27.612;2023-07-20T16:55:48;1002.6;;;22.6;39.1
53699;BME280;68408;53.952;27.612;2023-07-20T17:00:05;1002.6;;;22.6;39.3
53699;BME280;68408;53.952;27.612;2023-07-20T17:05:16;1002.6;;;22.6;39.4
53699;BME280;68408;53.952;27.612;2023-07-20T17:10:10;1002.6;;;22.5;39.3
53699;BME280;68408;53.952;27.612;2023-07-20T17:15:30;1002.6;;;22.4;39.6
53699;BME280;68408;53.952;27.612;2023-07-20T17:20:30;1002.7;;;22.3;39.9
53699;BME280;68408;53.952;27.612;2023-07-20T17:25:36;1002.7;;;22.3;40.2
53699;BME280;68408;53.952;27.612;2023-07-20T17:30:36;1002.8;;;22.2;40.4
53699;BME280;68408;53.952;27.612;2023-07-20T17:35:04;1002.8;;;22.2;40.8
53699;BME280;68408;53.952;27.612;2023-07-20T17:40:08;1002.8;;;22.1;40.7
53699;BME280;68408;53.952;27.612;2023-07-20T17:45:16;1002.8;;;21.9;41.1
53699;BME280;68408;53.952;27.612;2023-07-20T17:50:22;1002.8;;;21.8;41.5
53699;BME280;68408;53.952;27.612;2023-07-20T17:55:12;1002.9;;;21.7;41.8
53699;BME280;68408;53.952;27.612;2023-07-20T18:00:50;1002.9;;;21.6;42.1
53699;BME280;68408;53.952;27.612;2023-07-20T18:05:28;1002.9;;;21.4;42.3
53699;BME280;68408;53.952;27.612;2023-07-20T18:10:22;1003;;;21.3;42.6
53699;BME280;68408;53.952;27.612;2023-07-20T18:15:31;1003;;;21.2;43.1
53699;BME280;68408;53.952;27.612;2023-07-20T18:20:04;1003;;;21;43.6
53699;BME280;68408;53.952;27.612;2023-07-20T18:25:22;1003.1;;;20.8;44.3
53699;BME280;68408;53.952;27.612;2023-07-20T18:30:42;1003.1;;;20.6;44.6
53699;BME280;68408;53.952;27.612;2023-07-20T18:35:52;1003.2;;;20.4;45.3
53699;BME280;68408;53.952;27.612;2023-07-20T18:40:04;1003.3;;;20.2;45.8
53699;BME280;68408;53.952;27.612;2023-07-20T18:45:04;1003.4;;;20;46.7
53699;BME280;68408;53.952;27.612;2023-07-20T18:50:50;1003.4;;;19.8;47.4
53699;BME280;68408;53.952;27.612;2023-07-20T18:55:24;1003.4;;;19.7;48.4
53699;BME280;68408;53.952;27.612;2023-07-20T19:00:22;1003.3;;;19.6;49.7
53699;BME280;68408;53.952;27.612;2023-07-20T19:05:28;1003.3;;;19.5;50.5
53699;BME280;68408;53.952;27.612;2023-07-20T19:10:50;1003.4;;;19.5;50.8
53699;BME280;68408;53.952;27.612;2023-07-20T19:15:10;1003.4;;;19.4;51.2
53699;BME280;68408;53.952;27.612;2023-07-20T19:20:11;1003.4;;;19.3;51.7
53699;BME280;68408;53.952;27.612;2023-07-20T19:25:37;1003.5;;;19.2;51.7
53699;BME280;68408;53.952;27.612;2023-07-20T19:30:42;1003.5;;;19.1;51.7
53699;BME280;68408;53.952;27.612;2023-07-20T19:35:51;1003.5;;;19;51.5
53699;BME280;68408;53.952;27.612;2023-07-20T19:40:42;1003.5;;;18.9;51.2
53699;BME280;68408;53.952;27.612;2023-07-20T19:45:10;1003.5;;;18.9;50.6
53699;BME280;68408;53.952;27.612;2023-07-20T19:50:05;1003.5;;;18.8;50.3
53699;BME280;68408;53.952;27.612;2023-07-20T19:55:54;1003.5;;;18.8;50.4
53699;BME280;68408;53.952;27.612;2023-07-20T20:00:37;1003.5;;;18.8;50.4
53699;BME280;68408;53.952;27.612;2023-07-20T20:05:24;1003.6;;;18.7;50.4
53699;BME280;68408;53.952;27.612;2023-07-20T20:10:50;1003.7;;;18.6;50.6
53699;BME280;68408;53.952;27.612;2023-07-20T20:15:40;1003.8;;;18.6;50.9
53699;BME280;68408;53.952;27.612;2023-07-20T20:20:10;1003.8;;;18.4;51.3
53699;BME280;68408;53.952;27.612;2023-07-20T20:25:05;1003.9;;;18.4;51.6
53699;BME280;68408;53.952;27.612;2023-07-20T20:30:38;1003.9;;;18.3;51.9
53699;BME280;68408;53.952;27.612;2023-07-20T20:35:50;1003.9;;;18.3;52.3
53699;BME280;68408;53.952;27.612;2023-07-20T20:40:51;1003.9;;;18.2;52.6
53699;BME280;68408;53.952;27.612;2023-07-20T20:45:50;1003.9;;;18.1;53.1
53699;BME280;68408;53.952;27.612;2023-07-20T20:50:37;1003.9;;;18;53.5
53699;BME280;68408;53.952;27.612;2023-07-20T20:55:05;1004;;;17.9;53.9
53699;BME280;68408;53.952;27.612;2023-07-20T21:00:36;1004.1;;;17.8;54.2
53699;BME280;68408;53.952;27.612;2023-07-20T21:05:50;1004.1;;;17.8;54.4
53699;BME280;68408;53.952;27.612;2023-07-20T21:10:24;1004.1;;;17.8;54.5
53699;BME280;68408;53.952;27.612;2023-07-20T21:15:22;1004.2;;;17.7;54.8
53699;BME280;68408;53.952;27.612;2023-07-20T21:20:50;1004.2;;;17.8;54.9
53699;BME280;68408;53.952;27.612;2023-07-20T21:25:10;1004.2;;;17.7;55.2
53699;BME280;68408;53.952;27.612;2023-07-20T21:30:16;1004.2;;;17.7;55.6
53699;BME280;68408;53.952;27.612;2023-07-20T21:35:05;1004.2;;;17.6;55.8
53699;BME280;68408;53.952;27.612;2023-07-20T21:40:30;1004.2;;;17.5;56.1
53699;BME280;68408;53.952;27.612;2023-07-20T21:45:22;1004.3;;;17.4;56.5
53699;BME280;68408;53.952;27.612;2023-07-20T21:50:34;1004.3;;;17.3;56.9
53699;BME280;68408;53.952;27.612;2023-07-20T21:55:50;1004.3;;;17.3;57.2
53699;BME280;68408;53.952;27.612;2023-07-20T22:00:50;1004.3;;;17.2;57.4
53699;BME280;68408;53.952;27.612;2023-07-20T22:05:05;1004.4;;;17.2;57.6
53699;BME280;68408;53.952;27.612;2023-07-20T22:10:05;1004.4;;;17.2;57.8
53699;BME280;68408;53.952;27.612;2023-07-20T22:15:05;1004.4;;;17.2;58.1
53699;BME280;68408;53.952;27.612;2023-07-20T22:20:24;1004.4;;;17.1;58.4
53699;BME280;68408;53.952;27.612;2023-07-20T22:25:50;1004.5;;;17;58.9
53699;BME280;68408;53.952;27.612;2023-07-20T22:30:28;1004.5;;;16.9;59.3
53699;BME280;68408;53.952;27.612;2023-07-20T22:35:05;1004.5;;;16.9;59.4
53699;BME280;68408;53.952;27.612;2023-07-20T22:40:30;1004.5;;;16.9;59.7
53699;BME280;68408;53.952;27.612;2023-07-20T22:45:16;1004.5;;;16.9;60
53699;BME280;68408;53.952;27.612;2023-07-20T22:50:22;1004.5;;;16.8;60.5
53699;BME280;68408;53.952;27.612;2023-07-20T22:55:28;1004.6;;;16.7;60.7
53699;BME280;68408;53.952;27.612;2023-07-20T23:00:44;1004.5;;;16.7;61.1
53699;BME280;68408;53.952;27.612;2023-07-20T23:05:05;1004.5;;;16.7;61.4
53699;BME280;68408;53.952;27.612;2023-07-20T23:10:22;1004.5;;;16.6;61.6
53699;BME280;68408;53.952;27.612;2023-07-20T23:15:36;1004.6;;;16.6;61.9
53699;BME280;68408;53.952;27.612;2023-07-20T23:20:42;1004.6;;;16.5;62.4
53699;BME280;68408;53.952;27.612;2023-07-20T23:25:23;1004.6;;;16.5;62.8
53699;BME280;68408;53.952;27.612;2023-07-20T23:30:11;1004.6;;;16.5;62.9
53699;BME280;68408;53.952;27.612;2023-07-20T23:35:50;1004.6;;;16.5;63
53699;BME280;68408;53.952;27.612;2023-07-20T23:40:11;1004.6;;;16.5;63.1
53699;BME280;68408;53.952;27.612;2023-07-20T23:45:44;1004.6;;;16.5;63.3
53699;BME280;68408;53.952;27.612;2023-07-20T23:50:50;1004.6;;;16.5;63.4
53699;BME280;68408;53.952;27.612;2023-07-20T23:55:50;1004.6;;;16.6;63.1
